New Munich, Minnesota
Current Conditions -  °F | °C
As of 8:12 PM on Monday 22 Dec 2014 (Local Time) from KD39 Reporting Station
Haze Haze  
Wind Chill: 25°   Ceiling: 500
Heat Index: 32°   Visibility: 3mi
Dew Point: 32°   Wind: 9mph
Humidity: 99%   Direction: 80°E
Pressure: 29.61"   Gusts: NA
Location:  45.63°N, 94.75°W
Report Text: KD39 230212Z AUTO 08008KT 3SM BR OVC005 00/00 A2961 RMK AO2 T00020000
Loading
Personal Weather Stations






























Interactive Weather Map New forecast layout! Learn more

10-Day Weather Forecast

Advertisements
Track Severe Weather on mobile